createdAt,value
2023-02-28T00:00:37.020Z,78.54
2023-02-28T00:05:39.112Z,79.88
2023-02-28T00:10:40.580Z,78.77
2023-02-28T00:15:42.116Z,79.12
2023-02-28T00:20:43.567Z,78.59
2023-02-28T00:25:45.708Z,78.24
2023-02-28T00:30:48.020Z,79.75
2023-02-28T00:35:49.842Z,79.77
2023-02-28T00:40:51.349Z,78.84
2023-02-28T00:45:52.906Z,80.25
2023-02-28T00:50:54.605Z,80.36
2023-02-28T00:55:56.087Z,80.15
2023-02-28T01:00:57.501Z,79.27
2023-02-28T01:05:59.160Z,80.38
2023-02-28T01:11:11.861Z,80.91
2023-02-28T01:16:14.074Z,79.83
2023-02-28T01:21:18.510Z,80.74
2023-02-28T01:26:22.830Z,80.50
2023-02-28T01:31:25.043Z,81.18
2023-02-28T01:36:26.691Z,81.34
2023-02-28T01:41:31.973Z,81.71
2023-02-28T01:46:36.169Z,81.41
2023-02-28T01:51:44.842Z,82.05
2023-02-28T01:56:50.915Z,82.48
2023-02-28T02:01:53.371Z,82.64
2023-02-28T02:06:55.636Z,83.11
2023-02-28T02:11:57.668Z,83.36
2023-02-28T02:17:05.727Z,83.76
2023-02-28T02:22:38.527Z,83.88
2023-02-28T02:28:15.467Z,83.51
2023-02-28T02:33:48.133Z,83.63
2023-02-28T02:39:26.881Z,83.78
2023-02-28T02:44:32.641Z,85.34
2023-02-28T02:49:36.466Z,85.20
2023-02-28T02:54:41.470Z,85.19
2023-02-28T02:59:43.825Z,84.98
2023-02-28T03:04:53.603Z,84.90
2023-02-28T03:09:57.618Z,85.58
2023-02-28T03:15:08.285Z,86.05
2023-02-28T03:20:32.082Z,84.22
2023-02-28T03:25:54.541Z,85.05
2023-02-28T03:31:04.197Z,86.15
2023-02-28T03:36:17.833Z,85.70
2023-02-28T03:41:33.583Z,84.36
2023-02-28T03:46:39.235Z,86.75
2023-02-28T03:51:43.747Z,86.14
2023-02-28T03:56:53.359Z,85.70
2023-02-28T04:01:55.145Z,85.64
2023-02-28T04:07:07.305Z,85.25
2023-02-28T04:12:09.715Z,85.45
2023-02-28T04:17:11.143Z,86.48
2023-02-28T04:22:12.769Z,86.24
2023-02-28T04:27:14.261Z,86.10
2023-02-28T04:32:15.854Z,85.77
2023-02-28T04:37:17.454Z,86.91
2023-02-28T04:42:18.909Z,86.34
2023-02-28T04:47:20.352Z,87.03
2023-02-28T04:52:22.016Z,86.41
2023-02-28T04:57:23.510Z,84.97
2023-02-28T05:02:25.067Z,86.61
2023-02-28T05:07:26.558Z,87.17
2023-02-28T05:12:28.000Z,86.29
2023-02-28T05:17:29.607Z,87.36
2023-02-28T05:22:31.094Z,86.37
2023-02-28T05:27:32.748Z,86.22
2023-02-28T05:32:34.266Z,87.23
2023-02-28T05:37:35.850Z,86.57
2023-02-28T05:42:38.245Z,85.97
2023-02-28T05:47:50.215Z,86.83
2023-02-28T05:52:52.258Z,86.91
2023-02-28T05:57:53.739Z,86.54
2023-02-28T06:02:55.292Z,86.96
2023-02-28T06:07:56.857Z,87.49
2023-02-28T06:13:01.244Z,85.85
2023-02-28T06:18:02.812Z,85.32
2023-02-28T06:23:04.313Z,86.74
2023-02-28T06:28:05.787Z,86.86
2023-02-28T06:33:07.295Z,86.89
2023-02-28T06:38:08.769Z,87.17
2023-02-28T06:43:10.557Z,88.42
2023-02-28T06:48:11.967Z,88.75
2023-02-28T06:53:13.937Z,88.27
2023-02-28T06:58:15.424Z,88.33
2023-02-28T07:03:16.915Z,88.99
2023-02-28T07:08:18.446Z,88.75
2023-02-28T07:13:19.866Z,87.68
2023-02-28T07:18:21.352Z,86.26
2023-02-28T07:23:25.892Z,84.90
2023-02-28T07:28:27.415Z,82.06
2023-02-28T07:33:28.904Z,78.78
2023-02-28T07:38:30.394Z,75.78
2023-02-28T07:43:33.148Z,76.56
2023-02-28T07:48:35.054Z,74.84
2023-02-28T07:53:36.965Z,72.90
2023-02-28T07:58:38.527Z,72.41
2023-02-28T08:03:40.840Z,70.92
2023-02-28T08:08:42.437Z,68.11
2023-02-28T08:13:45.167Z,69.46
2023-02-28T08:18:46.861Z,66.41
2023-02-28T08:23:50.286Z,66.41
2023-02-28T08:28:51.725Z,63.52
2023-02-28T08:33:53.214Z,64.60
2023-02-28T08:38:54.722Z,62.98
2023-02-28T08:43:56.258Z,63.53
2023-02-28T08:48:58.381Z,62.66
2023-02-28T08:54:01.232Z,61.90
2023-02-28T08:59:02.758Z,59.92
2023-02-28T09:04:04.242Z,59.66
2023-02-28T09:09:06.047Z,58.58
2023-02-28T09:14:07.608Z,59.79
2023-02-28T09:19:12.056Z,58.35
2023-02-28T09:24:13.523Z,59.09
2023-02-28T09:29:14.979Z,58.52
2023-02-28T09:34:16.824Z,57.98
2023-02-28T09:39:18.283Z,56.69
2023-02-28T09:44:42.842Z,55.66
2023-02-28T09:49:48.442Z,54.73
2023-02-28T09:54:49.984Z,54.62
2023-02-28T10:00:04.340Z,54.36
2023-02-28T10:05:31.195Z,53.89
2023-02-28T10:10:38.925Z,54.34
2023-02-28T10:15:41.284Z,53.14
2023-02-28T10:20:43.968Z,53.64
2023-02-28T10:25:53.200Z,55.61
2023-02-28T10:30:55.873Z,53.81
2023-02-28T10:35:57.907Z,54.54
2023-02-28T10:41:11.443Z,53.96
2023-02-28T10:46:19.374Z,54.05
2023-02-28T10:51:23.897Z,53.06
2023-02-28T10:56:26.302Z,52.52
2023-02-28T11:01:31.130Z,51.33
2023-02-28T11:06:35.337Z,53.96
2023-02-28T11:11:45.897Z,52.77
2023-02-28T11:16:48.778Z,52.48
2023-02-28T11:22:02.399Z,53.49
2023-02-28T11:27:04.025Z,52.05
2023-02-28T11:32:17.814Z,52.08
2023-02-28T11:37:28.631Z,53.59
2023-02-28T11:42:33.166Z,52.51
2023-02-28T11:47:58.036Z,52.26
2023-02-28T11:53:11.521Z,51.30
2023-02-28T11:58:28.079Z,51.75
2023-02-28T12:03:56.295Z,51.27
2023-02-28T12:09:03.162Z,49.34
2023-02-28T12:14:45.450Z,50.98
2023-02-28T12:20:17.731Z,49.04
2023-02-28T12:25:55.835Z,49.67
2023-02-28T12:31:15.301Z,48.70
2023-02-28T12:36:20.120Z,49.26
2023-02-28T12:42:10.785Z,50.17
2023-02-28T12:47:16.373Z,50.83
2023-02-28T12:52:27.076Z,48.51
2023-02-28T12:57:53.280Z,48.50
2023-02-28T13:02:58.028Z,48.69
2023-02-28T13:08:21.576Z,49.47
2023-02-28T13:13:28.821Z,49.17
2023-02-28T13:18:47.512Z,49.29
2023-02-28T13:24:05.125Z,48.87
2023-02-28T13:29:15.568Z,49.27
2023-02-28T13:34:17.526Z,49.70
2023-02-28T13:39:37.233Z,48.45
2023-02-28T13:45:04.903Z,49.91
2023-02-28T13:50:33.055Z,48.88
2023-02-28T13:55:47.145Z,49.52
2023-02-28T14:01:04.529Z,48.66
2023-02-28T14:06:09.981Z,49.65
2023-02-28T14:11:35.199Z,49.73
2023-02-28T14:16:47.205Z,49.53
2023-02-28T14:22:06.614Z,49.89
2023-02-28T14:27:29.699Z,50.28
2023-02-28T14:33:00.412Z,50.46
2023-02-28T14:38:06.574Z,49.95
2023-02-28T14:43:21.530Z,50.40
2023-02-28T14:48:26.089Z,50.29
2023-02-28T14:53:37.132Z,50.77
2023-02-28T14:58:38.861Z,50.71
2023-02-28T15:03:41.051Z,51.34
2023-02-28T15:08:42.609Z,50.81
2023-02-28T15:13:51.936Z,51.68
2023-02-28T15:19:22.578Z,51.95
2023-02-28T15:24:35.224Z,51.72
2023-02-28T15:29:56.906Z,51.21
2023-02-28T15:35:05.155Z,52.20
2023-02-28T15:40:14.837Z,52.66
2023-02-28T15:45:38.020Z,52.59
2023-02-28T15:50:39.622Z,52.12
2023-02-28T15:55:41.118Z,51.52
2023-02-28T16:00:45.036Z,52.34
2023-02-28T16:05:46.621Z,51.77
2023-02-28T16:10:48.169Z,51.63
2023-02-28T16:15:49.651Z,52.41
2023-02-28T16:20:51.223Z,51.97
2023-02-28T16:25:52.746Z,52.23
2023-02-28T16:30:54.786Z,51.87
2023-02-28T16:35:56.509Z,51.96
2023-02-28T16:41:00.568Z,52.38
2023-02-28T16:46:02.111Z,52.60
2023-02-28T16:51:03.944Z,53.64
2023-02-28T16:56:05.788Z,53.53
2023-02-28T17:01:07.241Z,53.88
2023-02-28T17:06:24.090Z,53.62
2023-02-28T17:11:26.949Z,53.70
2023-02-28T17:16:34.461Z,54.25
2023-02-28T17:21:36.226Z,53.68
2023-02-28T17:26:37.677Z,55.34
2023-02-28T17:31:40.417Z,56.54
2023-02-28T17:36:42.838Z,55.33
2023-02-28T17:41:44.347Z,56.43
2023-02-28T17:46:46.596Z,57.10
2023-02-28T17:51:48.687Z,58.38
2023-02-28T17:56:50.256Z,59.94
2023-02-28T18:01:51.843Z,59.54
2023-02-28T18:06:54.490Z,60.89
2023-02-28T18:11:56.862Z,62.47
2023-02-28T18:16:58.383Z,62.54
2023-02-28T18:21:59.909Z,64.67
2023-02-28T18:27:01.420Z,64.70
2023-02-28T18:32:02.937Z,65.60
2023-02-28T18:37:04.620Z,65.68
2023-02-28T18:42:06.105Z,66.53
2023-02-28T18:47:07.818Z,66.39
2023-02-28T18:52:09.295Z,66.79
2023-02-28T18:57:10.759Z,68.36
2023-02-28T19:02:12.190Z,68.18
2023-02-28T19:07:13.893Z,69.37
2023-02-28T19:12:15.370Z,68.15
2023-02-28T19:17:16.813Z,68.95
2023-02-28T19:22:18.913Z,69.69
2023-02-28T19:27:20.605Z,68.46
2023-02-28T19:32:22.125Z,70.06
2023-02-28T19:37:23.738Z,69.40
2023-02-28T19:42:25.649Z,69.48
2023-02-28T19:47:28.090Z,70.08
2023-02-28T19:52:29.597Z,70.92
2023-02-28T19:57:31.112Z,71.23
2023-02-28T20:02:32.711Z,71.55
2023-02-28T20:07:34.636Z,71.75
2023-02-28T20:12:36.100Z,72.30
2023-02-28T20:17:37.693Z,71.60
2023-02-28T20:22:39.606Z,72.63
2023-02-28T20:27:41.342Z,71.92
2023-02-28T20:32:42.792Z,72.24
2023-02-28T20:37:44.298Z,72.12
2023-02-28T20:42:46.104Z,72.39
2023-02-28T20:47:47.638Z,72.04
2023-02-28T20:52:49.111Z,72.48
2023-02-28T20:57:50.664Z,72.89
2023-02-28T21:02:52.360Z,72.37
2023-02-28T21:07:53.852Z,73.16
2023-02-28T21:12:55.461Z,72.98
2023-02-28T21:17:57.024Z,73.23
2023-02-28T21:22:58.523Z,73.00
2023-02-28T21:28:00.114Z,73.63
2023-02-28T21:33:01.596Z,73.42
2023-02-28T21:38:03.030Z,74.30
2023-02-28T21:43:04.461Z,72.84
2023-02-28T21:48:05.999Z,74.72
2023-02-28T21:53:07.437Z,74.68
2023-02-28T21:58:08.880Z,74.24
2023-02-28T22:03:10.498Z,74.58
2023-02-28T22:08:12.070Z,74.44
2023-02-28T22:13:13.586Z,74.38
2023-02-28T22:18:15.068Z,74.75
2023-02-28T22:23:16.510Z,75.50
2023-02-28T22:28:18.095Z,75.53
2023-02-28T22:33:19.632Z,75.59
2023-02-28T22:38:21.062Z,75.00
2023-02-28T22:43:22.516Z,74.89
2023-02-28T22:48:23.976Z,76.08
2023-02-28T22:53:25.435Z,76.73
2023-02-28T22:58:27.405Z,76.34
2023-02-28T23:03:30.647Z,76.83
2023-02-28T23:08:32.127Z,76.22
2023-02-28T23:13:36.718Z,75.73
2023-02-28T23:18:38.278Z,76.18
2023-02-28T23:23:39.830Z,75.95
2023-02-28T23:28:41.411Z,75.99
2023-02-28T23:33:42.982Z,76.87
2023-02-28T23:38:47.786Z,76.38
2023-02-28T23:43:51.101Z,77.76
2023-02-28T23:48:52.621Z,76.76
2023-02-28T23:53:54.165Z,77.37
2023-02-28T23:59:00.180Z,77.55
